createdAt,value
2018-08-31T00:00:32.149Z,18.1
2018-08-31T00:01:32.156Z,18.13
2018-08-31T00:02:31.895Z,18.2
2018-08-31T00:03:32.148Z,18.19
2018-08-31T00:04:32.155Z,18.15
2018-08-31T00:05:32.411Z,18.23
2018-08-31T00:06:32.408Z,18.26
2018-08-31T00:07:32.402Z,18.28
2018-08-31T00:08:32.413Z,18.31
2018-08-31T00:09:32.179Z,18.31
2018-08-31T00:10:32.465Z,18.28
2018-08-31T00:11:31.904Z,18.23
2018-08-31T00:12:32.411Z,18.18
2018-08-31T00:13:32.152Z,18.22
2018-08-31T00:14:32.148Z,18.16
2018-08-31T00:15:32.410Z,18.2
2018-08-31T00:16:32.153Z,18.2
2018-08-31T00:17:32.408Z,18.2
2018-08-31T00:18:32.405Z,18.25
2018-08-31T00:19:32.157Z,18.25
2018-08-31T00:20:32.437Z,18.28
2018-08-31T00:21:32.156Z,18.28
2018-08-31T00:22:32.165Z,18.28
2018-08-31T00:23:31.914Z,18.23
2018-08-31T00:24:32.172Z,18.22
2018-08-31T00:25:32.447Z,18.23
2018-08-31T00:26:32.413Z,18.28
2018-08-31T00:27:32.170Z,18.28
2018-08-31T00:28:32.405Z,18.26
2018-08-31T00:29:32.159Z,18.22
2018-08-31T00:30:32.426Z,18.18
2018-08-31T00:31:32.417Z,18.18
2018-08-31T00:32:32.182Z,18.19
2018-08-31T00:33:32.179Z,18.11
2018-08-31T00:34:31.917Z,18.2
2018-08-31T00:35:32.422Z,18.25
2018-08-31T00:36:32.163Z,18.25
2018-08-31T00:37:32.430Z,18.23
2018-08-31T00:38:32.175Z,18.23
2018-08-31T00:39:32.428Z,18.23
2018-08-31T00:40:32.266Z,18.2
2018-08-31T00:41:32.434Z,18.07
2018-08-31T00:42:32.436Z,18.16
2018-08-31T00:43:32.165Z,18.07
2018-08-31T00:44:32.429Z,18.1
2018-08-31T00:45:32.429Z,18.13
2018-08-31T00:46:32.425Z,18.07
2018-08-31T00:47:32.422Z,18.01
2018-08-31T00:48:32.424Z,18.03
2018-08-31T00:49:32.192Z,18.03
2018-08-31T00:50:32.458Z,18.01
2018-08-31T00:51:32.178Z,17.98
2018-08-31T00:52:32.164Z,18.01
2018-08-31T00:53:32.423Z,18.05
2018-08-31T00:54:32.182Z,18.05
2018-08-31T00:55:32.431Z,18.07
2018-08-31T00:56:32.203Z,18
2018-08-31T00:57:32.428Z,18.03
2018-08-31T00:58:32.449Z,18.03
2018-08-31T00:59:32.185Z,18.03
2018-08-31T01:00:31.951Z,18.04
2018-08-31T01:01:32.528Z,18.15
2018-08-31T01:02:32.430Z,18.05
2018-08-31T01:03:32.188Z,18.16
2018-08-31T01:04:32.453Z,18.07
2018-08-31T01:05:32.429Z,18.13
2018-08-31T01:06:32.207Z,18.03
2018-08-31T01:07:32.429Z,17.9
2018-08-31T01:08:32.204Z,17.97
2018-08-31T01:09:32.192Z,17.9
2018-08-31T01:10:31.967Z,17.94
2018-08-31T01:11:32.206Z,17.95
2018-08-31T01:12:32.470Z,17.94
2018-08-31T01:13:32.426Z,17.92
2018-08-31T01:14:32.429Z,17.97
2018-08-31T01:15:32.455Z,17.86
2018-08-31T01:16:32.199Z,17.89
2018-08-31T01:17:32.202Z,17.83
2018-08-31T01:18:32.192Z,17.82
2018-08-31T01:19:32.435Z,17.82
2018-08-31T01:20:32.175Z,17.76
2018-08-31T01:21:32.265Z,17.82
2018-08-31T01:22:32.267Z,17.8
2018-08-31T01:23:32.451Z,17.76
2018-08-31T01:24:31.943Z,17.82
2018-08-31T01:25:32.445Z,17.8
2018-08-31T01:26:32.438Z,17.82
2018-08-31T01:27:32.436Z,17.8
2018-08-31T01:28:32.200Z,17.82
2018-08-31T01:29:32.448Z,17.76
2018-08-31T01:30:32.455Z,17.8
2018-08-31T01:31:32.444Z,17.79
2018-08-31T01:32:32.442Z,17.8
2018-08-31T01:33:32.187Z,17.79
2018-08-31T01:34:32.454Z,17.87
2018-08-31T01:35:32.479Z,17.79
2018-08-31T01:36:32.444Z,17.78
2018-08-31T01:37:32.187Z,17.79
2018-08-31T01:38:32.429Z,17.74
2018-08-31T01:39:32.210Z,17.78
2018-08-31T01:40:32.181Z,17.8
2018-08-31T01:41:32.205Z,17.79
2018-08-31T01:42:32.225Z,17.71
2018-08-31T01:43:32.443Z,17.76
2018-08-31T01:44:32.184Z,17.68
2018-08-31T01:45:32.241Z,17.71
2018-08-31T01:46:32.435Z,17.65
2018-08-31T01:47:32.427Z,17.76
2018-08-31T01:48:31.942Z,17.74
2018-08-31T01:49:31.938Z,17.79
2018-08-31T01:50:31.930Z,17.79
2018-08-31T01:51:32.175Z,17.76
2018-08-31T01:52:32.488Z,17.72
2018-08-31T01:53:32.016Z,17.76
2018-08-31T01:54:31.938Z,17.76
2018-08-31T01:55:32.185Z,17.71
2018-08-31T01:56:32.487Z,17.76
2018-08-31T01:57:32.195Z,17.79
2018-08-31T01:58:31.933Z,17.82
2018-08-31T01:59:32.210Z,17.78
2018-08-31T02:00:32.183Z,17.71
2018-08-31T02:01:32.444Z,17.71
2018-08-31T02:02:31.943Z,17.76
2018-08-31T02:03:32.431Z,17.76
2018-08-31T02:04:32.210Z,17.78
2018-08-31T02:05:32.191Z,17.78
2018-08-31T02:06:32.204Z,17.85
2018-08-31T02:07:32.429Z,17.8
2018-08-31T02:08:32.447Z,17.79
2018-08-31T02:09:32.445Z,17.74
2018-08-31T02:10:32.439Z,17.74
2018-08-31T02:11:32.174Z,17.72
2018-08-31T02:12:32.434Z,17.71
2018-08-31T02:13:31.925Z,17.74
2018-08-31T02:14:32.435Z,17.7
2018-08-31T02:15:32.190Z,17.63
2018-08-31T02:16:32.437Z,17.71
2018-08-31T02:17:31.931Z,17.7
2018-08-31T02:18:31.921Z,17.65
2018-08-31T02:19:32.433Z,17.6
2018-08-31T02:20:32.177Z,17.63
2018-08-31T02:21:32.442Z,17.56
2018-08-31T02:22:32.445Z,17.6
2018-08-31T02:23:32.444Z,17.57
2018-08-31T02:24:32.435Z,17.59
2018-08-31T02:25:32.444Z,17.57
2018-08-31T02:26:32.202Z,17.63
2018-08-31T02:27:32.255Z,17.52
2018-08-31T02:28:32.450Z,17.64
2018-08-31T02:29:32.179Z,17.6
2018-08-31T02:30:32.173Z,17.63
2018-08-31T02:31:32.199Z,17.56
2018-08-31T02:32:33.033Z,17.64
2018-08-31T02:33:32.176Z,17.63
2018-08-31T02:34:32.203Z,17.59
2018-08-31T02:35:31.949Z,17.6
2018-08-31T02:36:32.440Z,17.54
2018-08-31T02:37:32.718Z,17.51
2018-08-31T02:38:32.178Z,17.46
2018-08-31T02:39:32.452Z,17.52
2018-08-31T02:40:32.203Z,17.49
2018-08-31T02:41:31.924Z,17.41
2018-08-31T02:42:32.186Z,17.44
2018-08-31T02:43:32.195Z,17.33
2018-08-31T02:44:32.444Z,17.31
2018-08-31T02:45:32.193Z,17.34
2018-08-31T02:46:32.191Z,17.34
2018-08-31T02:47:32.437Z,17.33
2018-08-31T02:48:32.454Z,17.34
2018-08-31T02:49:32.178Z,17.36
2018-08-31T02:50:32.273Z,17.31
2018-08-31T02:51:32.179Z,17.31
2018-08-31T02:52:32.431Z,17.41
2018-08-31T02:53:32.439Z,17.41
2018-08-31T02:54:32.451Z,17.36
2018-08-31T02:55:32.198Z,17.38
2018-08-31T02:56:32.479Z,17.36
2018-08-31T02:57:32.180Z,17.3
2018-08-31T02:58:32.182Z,17.31
2018-08-31T02:59:31.929Z,17.31
2018-08-31T03:00:31.933Z,17.38
2018-08-31T03:01:31.943Z,17.31
2018-08-31T03:02:32.187Z,17.31
2018-08-31T03:03:32.181Z,17.36
2018-08-31T03:04:32.202Z,17.44
2018-08-31T03:05:32.455Z,17.36
2018-08-31T03:06:32.187Z,17.34
2018-08-31T03:07:31.937Z,17.33
2018-08-31T03:08:32.238Z,17.3
2018-08-31T03:09:32.437Z,17.34
2018-08-31T03:10:32.441Z,17.26
2018-08-31T03:11:32.262Z,17.16
2018-08-31T03:12:32.258Z,17.19
2018-08-31T03:13:32.434Z,17.29
2018-08-31T03:14:32.185Z,17.22
2018-08-31T03:15:31.926Z,17.2
2018-08-31T03:16:32.438Z,17.2
2018-08-31T03:17:31.936Z,17.3
2018-08-31T03:18:32.184Z,17.3
2018-08-31T03:19:31.933Z,17.16
2018-08-31T03:20:32.229Z,17.24
2018-08-31T03:21:32.596Z,17.19
2018-08-31T03:22:32.471Z,17.24
2018-08-31T03:23:31.935Z,17.16
2018-08-31T03:24:32.446Z,17.23
2018-08-31T03:25:32.261Z,17.16
2018-08-31T03:26:32.447Z,17.12
2018-08-31T03:27:32.181Z,17.11
2018-08-31T03:28:32.180Z,17.14
2018-08-31T03:29:32.441Z,17.11
2018-08-31T03:30:32.447Z,17.08
2018-08-31T03:31:32.440Z,17.04
2018-08-31T03:32:32.443Z,17.05
2018-08-31T03:33:32.200Z,17.06
2018-08-31T03:34:32.186Z,17.04
2018-08-31T03:35:32.193Z,17.04
2018-08-31T03:36:32.216Z,17.06
2018-08-31T03:37:32.435Z,17.05
2018-08-31T03:38:32.187Z,17.02
2018-08-31T03:39:32.190Z,16.99
2018-08-31T03:40:32.170Z,17.09
2018-08-31T03:41:32.446Z,17.09
2018-08-31T03:42:32.429Z,17.06
2018-08-31T03:43:32.187Z,17.11
2018-08-31T03:44:32.424Z,17.16
2018-08-31T03:45:32.184Z,17.11
2018-08-31T03:46:32.201Z,17.15
2018-08-31T03:47:32.171Z,17.2
2018-08-31T03:48:32.224Z,17.08
2018-08-31T03:49:32.207Z,17.09
2018-08-31T03:50:32.427Z,17.05
2018-08-31T03:51:32.184Z,17.06
2018-08-31T03:52:32.172Z,17.08
2018-08-31T03:53:32.445Z,17.06
2018-08-31T03:54:32.184Z,17.02
2018-08-31T03:55:32.438Z,17.14
2018-08-31T03:56:32.428Z,17.15
2018-08-31T03:57:32.191Z,17.06
2018-08-31T03:58:32.441Z,17.02
2018-08-31T03:59:32.432Z,17.09
2018-08-31T04:00:31.951Z,17.05
2018-08-31T04:01:31.918Z,17.08
2018-08-31T04:02:32.157Z,17.01
2018-08-31T04:03:32.419Z,17.04
2018-08-31T04:04:32.168Z,17.06
2018-08-31T04:05:32.423Z,17.01
2018-08-31T04:06:32.177Z,16.97
2018-08-31T04:07:32.168Z,16.99
2018-08-31T04:08:32.160Z,16.94
2018-08-31T04:09:32.417Z,17.01
2018-08-31T04:10:32.163Z,17.05
2018-08-31T04:11:32.182Z,17.06
2018-08-31T04:12:32.433Z,17.06
2018-08-31T04:13:32.168Z,17.08
2018-08-31T04:14:32.164Z,17.15
2018-08-31T04:15:32.475Z,17.09
2018-08-31T04:16:32.169Z,17.14
2018-08-31T04:17:32.421Z,17.12
2018-08-31T04:18:32.246Z,17.04
2018-08-31T04:19:31.911Z,17.08
2018-08-31T04:20:32.412Z,17.08
2018-08-31T04:21:32.413Z,17.12
2018-08-31T04:22:32.423Z,17.08
2018-08-31T04:23:32.978Z,17.09
2018-08-31T04:24:32.156Z,17.14
2018-08-31T04:25:32.159Z,17.11
2018-08-31T04:26:32.426Z,17.09
2018-08-31T04:27:32.156Z,17.15
2018-08-31T04:28:32.449Z,17.19
2018-08-31T04:29:32.422Z,17.16
2018-08-31T04:30:32.167Z,17.23
2018-08-31T04:31:31.898Z,17.19
2018-08-31T04:32:32.157Z,17.19
2018-08-31T04:33:31.906Z,17.14
2018-08-31T04:34:32.159Z,17.14
2018-08-31T04:35:32.410Z,17.16
2018-08-31T04:36:31.903Z,17.15
2018-08-31T04:37:32.155Z,17.11
2018-08-31T04:38:32.147Z,17.11
2018-08-31T04:39:32.167Z,17.15
2018-08-31T04:40:32.497Z,17.16
2018-08-31T04:41:32.429Z,17.14
2018-08-31T04:42:32.417Z,17.2
2018-08-31T04:43:32.422Z,17.2
2018-08-31T04:44:32.426Z,17.23
2018-08-31T04:45:32.428Z,17.26
2018-08-31T04:46:32.413Z,17.2
2018-08-31T04:47:32.166Z,17.24
2018-08-31T04:48:31.924Z,17.22
2018-08-31T04:49:32.158Z,17.26
2018-08-31T04:50:32.863Z,17.22
2018-08-31T04:51:32.160Z,17.27
2018-08-31T04:52:32.170Z,17.24
2018-08-31T04:53:32.984Z,17.12
2018-08-31T04:54:32.414Z,17.24
2018-08-31T04:55:32.432Z,17.16
2018-08-31T04:56:32.414Z,17.22
2018-08-31T04:57:32.423Z,17.14
2018-08-31T04:58:32.425Z,17.15
2018-08-31T04:59:32.418Z,17.16
2018-08-31T05:00:32.427Z,17.14
2018-08-31T05:01:32.416Z,17.12
2018-08-31T05:02:32.156Z,17.05
2018-08-31T05:03:33.210Z,17.05
2018-08-31T05:04:32.414Z,17.05
2018-08-31T05:05:32.412Z,17.06
2018-08-31T05:06:32.411Z,17.02
2018-08-31T05:07:32.405Z,17.05
2018-08-31T05:08:32.166Z,17.02
2018-08-31T05:09:32.415Z,17.02
2018-08-31T05:10:32.172Z,17.08
2018-08-31T05:11:31.895Z,17.01
2018-08-31T05:12:32.417Z,17.01
2018-08-31T05:13:31.923Z,16.94
2018-08-31T05:14:32.150Z,17.01
2018-08-31T05:15:31.915Z,17.04
2018-08-31T05:16:32.416Z,17.01
2018-08-31T05:17:32.409Z,17.01
2018-08-31T05:18:32.446Z,17.04
2018-08-31T05:19:32.424Z,17.04
2018-08-31T05:20:32.408Z,17.09
2018-08-31T05:21:32.419Z,17.02
2018-08-31T05:22:32.539Z,17.08
2018-08-31T05:23:31.903Z,17.11
2018-08-31T05:24:32.407Z,17.15
2018-08-31T05:25:32.164Z,17.15
2018-08-31T05:26:32.407Z,17.15
2018-08-31T05:27:32.426Z,17.2
2018-08-31T05:28:32.749Z,17.16
2018-08-31T05:29:31.894Z,17.2
2018-08-31T05:30:32.203Z,17.2
2018-08-31T05:31:32.421Z,17.16
2018-08-31T05:32:32.433Z,17.22
2018-08-31T05:33:31.936Z,17.16
2018-08-31T05:34:32.409Z,17.14
2018-08-31T05:35:32.176Z,17.16
2018-08-31T05:36:32.161Z,17.11
2018-08-31T05:37:32.413Z,17.09
2018-08-31T05:38:32.406Z,17.14
2018-08-31T05:39:32.165Z,17.23
2018-08-31T05:40:32.165Z,17.19
2018-08-31T05:41:32.414Z,17.19
2018-08-31T05:42:32.454Z,17.2
2018-08-31T05:43:32.413Z,17.19
2018-08-31T05:44:32.425Z,17.26
2018-08-31T05:45:32.412Z,17.23
2018-08-31T05:46:32.407Z,17.16
2018-08-31T05:47:32.418Z,17.19
2018-08-31T05:48:32.149Z,17.14
2018-08-31T05:49:32.413Z,17.2
2018-08-31T05:50:32.182Z,17.15
2018-08-31T05:51:31.891Z,17.15
2018-08-31T05:52:32.143Z,17.16
2018-08-31T05:53:32.340Z,17.11
2018-08-31T05:54:32.403Z,17.19
2018-08-31T05:55:32.403Z,17.2
2018-08-31T05:56:32.400Z,17.2
2018-08-31T05:57:32.401Z,17.22
2018-08-31T05:58:32.143Z,17.2
2018-08-31T05:59:33.220Z,17.27
2018-08-31T06:00:32.412Z,17.27
2018-08-31T06:01:32.437Z,17.2
2018-08-31T06:02:32.417Z,17.27
2018-08-31T06:03:31.889Z,17.27
2018-08-31T06:04:31.901Z,17.33
2018-08-31T06:05:32.150Z,17.38
2018-08-31T06:06:31.896Z,17.31
2018-08-31T06:07:32.396Z,17.39
2018-08-31T06:08:32.419Z,17.42
2018-08-31T06:09:32.416Z,17.48
2018-08-31T06:10:32.401Z,17.38
2018-08-31T06:11:31.893Z,17.36
2018-08-31T06:12:32.154Z,17.36
2018-08-31T06:13:32.152Z,17.46
2018-08-31T06:14:32.426Z,17.34
2018-08-31T06:15:32.190Z,17.34
2018-08-31T06:16:32.147Z,17.44
2018-08-31T06:17:32.142Z,17.39
2018-08-31T06:18:32.404Z,17.42
2018-08-31T06:19:31.939Z,17.45
2018-08-31T06:20:32.167Z,17.36
2018-08-31T06:21:32.167Z,17.34
2018-08-31T06:22:32.159Z,17.3
2018-08-31T06:23:31.888Z,17.16
2018-08-31T06:24:32.412Z,17.19
2018-08-31T06:25:32.479Z,17.16
2018-08-31T06:26:32.149Z,17.29
2018-08-31T06:27:32.410Z,17.33
2018-08-31T06:28:32.400Z,17.33
2018-08-31T06:29:32.151Z,17.29
2018-08-31T06:30:32.424Z,17.22
2018-08-31T06:31:32.402Z,17.27
2018-08-31T06:32:32.223Z,17.23
2018-08-31T06:33:32.144Z,17.26
2018-08-31T06:34:32.410Z,17.33
2018-08-31T06:35:32.157Z,17.29
2018-08-31T06:36:32.157Z,17.3
2018-08-31T06:37:32.148Z,17.27
2018-08-31T06:38:32.397Z,17.19
2018-08-31T06:39:31.891Z,17.23
2018-08-31T06:40:32.392Z,17.14
2018-08-31T06:41:32.396Z,17.2
2018-08-31T06:42:32.152Z,17.2
2018-08-31T06:43:32.399Z,17.22
2018-08-31T06:44:32.133Z,17.26
2018-08-31T06:45:32.130Z,17.22
2018-08-31T06:46:32.406Z,17.26
2018-08-31T06:47:32.404Z,17.24
2018-08-31T06:48:32.437Z,17.23
2018-08-31T06:49:32.437Z,17.27
2018-08-31T06:50:32.395Z,17.26
2018-08-31T06:51:32.720Z,17.27
2018-08-31T06:52:32.392Z,17.31
2018-08-31T06:53:32.131Z,17.27
2018-08-31T06:54:31.881Z,17.3
2018-08-31T06:55:32.397Z,17.27
2018-08-31T06:56:31.878Z,17.12
2018-08-31T06:57:32.138Z,17.2
2018-08-31T06:58:32.140Z,17.2
2018-08-31T06:59:32.128Z,17.16
2018-08-31T07:00:32.146Z,17.11
2018-08-31T07:01:32.382Z,17.09
2018-08-31T07:02:32.139Z,17.09
2018-08-31T07:03:32.398Z,17.06
2018-08-31T07:04:32.459Z,17.06
2018-08-31T07:05:31.880Z,17.06
2018-08-31T07:06:31.881Z,17.02
2018-08-31T07:07:32.397Z,17.02
2018-08-31T07:08:32.139Z,17.04
2018-08-31T07:09:32.402Z,17.02
2018-08-31T07:10:32.393Z,16.99
2018-08-31T07:11:32.139Z,17.01
2018-08-31T07:12:32.301Z,16.99
2018-08-31T07:13:32.396Z,17.01
2018-08-31T07:14:32.387Z,17.08
2018-08-31T07:15:32.397Z,17.04
2018-08-31T07:16:32.146Z,16.99
2018-08-31T07:17:32.405Z,16.99
2018-08-31T07:18:32.446Z,16.94
2018-08-31T07:19:31.893Z,16.96
2018-08-31T07:20:31.896Z,16.93
2018-08-31T07:21:32.164Z,16.94
2018-08-31T07:22:32.394Z,16.96
2018-08-31T07:23:32.142Z,16.99
2018-08-31T07:24:32.127Z,16.96
2018-08-31T07:25:32.231Z,16.96
2018-08-31T07:26:32.849Z,16.93
2018-08-31T07:27:32.419Z,16.99
2018-08-31T07:28:32.138Z,17.06
2018-08-31T07:29:32.388Z,17.04
2018-08-31T07:30:31.886Z,17.04
2018-08-31T07:31:32.152Z,17.02
2018-08-31T07:32:32.568Z,17.09
2018-08-31T07:33:32.397Z,17.08
2018-08-31T07:34:32.147Z,17.09
2018-08-31T07:35:32.193Z,17.14
2018-08-31T07:36:32.314Z,17.16
2018-08-31T07:37:32.141Z,17.16
2018-08-31T07:38:32.392Z,17.16
2018-08-31T07:39:32.141Z,17.24
2018-08-31T07:40:32.388Z,17.29
2018-08-31T07:41:32.126Z,17.23
2018-08-31T07:42:31.865Z,17.14
2018-08-31T07:43:32.133Z,17.2
2018-08-31T07:44:32.410Z,17.19
2018-08-31T07:45:32.395Z,17.19
2018-08-31T07:46:32.386Z,17.15
2018-08-31T07:47:32.116Z,17.08
2018-08-31T07:48:32.140Z,17.05
2018-08-31T07:49:32.134Z,17.05
2018-08-31T07:50:31.934Z,16.99
2018-08-31T07:51:32.384Z,16.94
2018-08-31T07:52:31.870Z,16.83
2018-08-31T07:53:32.381Z,16.86
2018-08-31T07:54:32.382Z,16.84
2018-08-31T07:55:32.386Z,16.76
2018-08-31T07:56:32.384Z,16.66
2018-08-31T07:57:32.388Z,16.6
2018-08-31T07:58:32.135Z,16.51
2018-08-31T07:59:31.880Z,16.53
2018-08-31T08:00:32.416Z,16.43
2018-08-31T08:01:32.135Z,16.49
2018-08-31T08:02:32.395Z,16.42
2018-08-31T08:03:32.124Z,16.42
2018-08-31T08:04:32.386Z,16.46
2018-08-31T08:05:32.581Z,16.39
2018-08-31T08:06:32.376Z,16.38
2018-08-31T08:07:32.750Z,16.41
2018-08-31T08:08:32.135Z,16.31
2018-08-31T08:09:32.130Z,16.36
2018-08-31T08:10:32.453Z,16.38
2018-08-31T08:11:32.137Z,16.32
2018-08-31T08:12:32.145Z,16.39
2018-08-31T08:13:32.147Z,16.46
2018-08-31T08:14:32.387Z,16.46
2018-08-31T08:15:31.855Z,16.39
2018-08-31T08:16:32.407Z,16.43
2018-08-31T08:17:31.869Z,16.29
2018-08-31T08:18:32.327Z,16.26
2018-08-31T08:19:32.123Z,16.15
2018-08-31T08:20:32.128Z,16.28
2018-08-31T08:21:32.127Z,16.16
2018-08-31T08:22:32.408Z,16.17
2018-08-31T08:23:32.376Z,16.23
2018-08-31T08:24:32.365Z,16.24
2018-08-31T08:25:32.422Z,16.13
2018-08-31T08:26:32.108Z,16.2
2018-08-31T08:27:32.384Z,16.15
2018-08-31T08:28:32.800Z,16.26
2018-08-31T08:29:32.108Z,16.33
2018-08-31T08:30:31.898Z,16.28
2018-08-31T08:31:32.124Z,16.28
2018-08-31T08:32:32.130Z,16.41
2018-08-31T08:33:32.114Z,16.33
2018-08-31T08:34:32.118Z,16.35
2018-08-31T08:35:32.389Z,16.39
2018-08-31T08:36:32.105Z,16.38
2018-08-31T08:37:32.398Z,16.35
2018-08-31T08:38:32.373Z,16.28
2018-08-31T08:39:32.349Z,16.31
2018-08-31T08:40:32.364Z,16.17
2018-08-31T08:41:31.840Z,16.17
2018-08-31T08:42:32.295Z,16.12
2018-08-31T08:43:32.350Z,16.09
2018-08-31T08:44:31.844Z,16.05
2018-08-31T08:45:32.098Z,16.05
2018-08-31T08:46:32.109Z,15.94
2018-08-31T08:47:32.360Z,15.94
2018-08-31T08:48:32.810Z,15.88
2018-08-31T08:49:31.856Z,15.84
2018-08-31T08:50:32.091Z,15.84
2018-08-31T08:51:32.092Z,15.9
2018-08-31T08:52:32.093Z,15.91
2018-08-31T08:53:32.343Z,15.9
2018-08-31T08:54:32.100Z,15.92
2018-08-31T08:55:32.353Z,15.95
2018-08-31T08:56:32.089Z,16
2018-08-31T08:57:32.366Z,15.97
2018-08-31T08:58:32.346Z,16
2018-08-31T08:59:32.352Z,15.97
2018-08-31T09:00:32.351Z,15.97
2018-08-31T09:01:32.085Z,15.97
2018-08-31T09:02:32.095Z,15.9
2018-08-31T09:03:32.346Z,15.98
2018-08-31T09:04:32.350Z,15.94
2018-08-31T09:05:32.589Z,15.92
2018-08-31T09:06:32.086Z,16
2018-08-31T09:07:32.104Z,15.98
2018-08-31T09:08:31.829Z,16.05
2018-08-31T09:09:32.337Z,15.97
2018-08-31T09:10:32.413Z,16.02
2018-08-31T09:11:32.090Z,16.08
2018-08-31T09:12:32.690Z,16.08
2018-08-31T09:13:32.369Z,16.09
2018-08-31T09:14:32.356Z,16.2
2018-08-31T09:15:32.205Z,16.2
2018-08-31T09:16:32.344Z,16.2
2018-08-31T09:17:32.347Z,16.24
2018-08-31T09:18:32.527Z,16.15
2018-08-31T09:19:31.804Z,16.12
2018-08-31T09:20:32.155Z,16.29
2018-08-31T09:21:32.332Z,16.31
2018-08-31T09:22:32.096Z,16.23
2018-08-31T09:23:32.075Z,16.32
2018-08-31T09:24:32.430Z,16.35
2018-08-31T09:25:32.406Z,16.41
2018-08-31T09:26:32.352Z,16.5
2018-08-31T09:27:32.099Z,16.57
2018-08-31T09:28:32.320Z,16.58
2018-08-31T09:29:31.817Z,16.5
2018-08-31T09:30:32.341Z,16.56
2018-08-31T09:31:32.076Z,16.69
2018-08-31T09:32:32.583Z,16.56
2018-08-31T09:33:32.180Z,16.69
2018-08-31T09:34:31.826Z,16.66
2018-08-31T09:35:32.338Z,16.74
2018-08-31T09:36:32.064Z,16.69
2018-08-31T09:37:32.093Z,16.68
2018-08-31T09:38:32.730Z,16.68
2018-08-31T09:39:31.846Z,16.71
2018-08-31T09:40:32.067Z,16.72
2018-08-31T09:41:32.086Z,16.79
2018-08-31T09:42:32.370Z,16.81
2018-08-31T09:43:31.828Z,16.76
2018-08-31T09:44:32.095Z,16.83
2018-08-31T09:45:32.085Z,16.81
2018-08-31T09:46:32.082Z,16.69
2018-08-31T09:47:32.098Z,16.51
2018-08-31T09:48:31.822Z,16.5
2018-08-31T09:49:32.446Z,16.64
2018-08-31T09:50:32.329Z,16.54
2018-08-31T09:51:31.803Z,16.56
2018-08-31T09:52:32.311Z,16.51
2018-08-31T09:53:32.081Z,16.5
2018-08-31T09:54:32.316Z,16.47
2018-08-31T09:55:32.068Z,16.46
2018-08-31T09:56:32.329Z,16.38
2018-08-31T09:57:32.256Z,16.5
2018-08-31T09:58:32.068Z,16.47
2018-08-31T09:59:32.335Z,16.42
2018-08-31T10:00:32.060Z,16.58
2018-08-31T10:01:32.335Z,16.6
2018-08-31T10:02:32.073Z,16.72
2018-08-31T10:03:32.057Z,16.71
2018-08-31T10:04:32.315Z,16.74
2018-08-31T10:05:32.089Z,16.71
2018-08-31T10:06:32.326Z,16.71
2018-08-31T10:07:32.061Z,16.71
2018-08-31T10:08:32.327Z,16.69
2018-08-31T10:09:31.810Z,16.58
2018-08-31T10:10:32.395Z,16.58
2018-08-31T10:11:32.339Z,16.51
2018-08-31T10:12:32.320Z,16.5
2018-08-31T10:13:32.614Z,16.43
2018-08-31T10:14:32.321Z,16.38
2018-08-31T10:15:32.065Z,16.31
2018-08-31T10:16:32.076Z,16.35
2018-08-31T10:17:32.320Z,16.33
2018-08-31T10:18:32.088Z,16.31
2018-08-31T10:19:32.313Z,16.41
2018-08-31T10:20:32.396Z,16.33
2018-08-31T10:21:32.330Z,16.31
2018-08-31T10:22:32.055Z,16.28
2018-08-31T10:23:32.075Z,16.2
2018-08-31T10:24:32.317Z,16.29
2018-08-31T10:25:32.060Z,16.28
2018-08-31T10:26:32.073Z,16.13
2018-08-31T10:27:32.328Z,16.12
2018-08-31T10:28:32.055Z,16.15
2018-08-31T10:29:31.797Z,16.21
2018-08-31T10:30:32.133Z,16.35
2018-08-31T10:31:32.338Z,16.39
2018-08-31T10:32:32.306Z,16.46
2018-08-31T10:33:32.059Z,16.46
2018-08-31T10:34:32.048Z,16.5
2018-08-31T10:35:32.064Z,16.54
2018-08-31T10:36:32.310Z,16.43
2018-08-31T10:37:31.799Z,16.41
2018-08-31T10:38:32.320Z,16.35
2018-08-31T10:39:32.103Z,16.38
2018-08-31T10:40:32.311Z,16.38
2018-08-31T10:41:32.049Z,16.42
2018-08-31T10:42:32.328Z,16.51
2018-08-31T10:43:32.056Z,16.51
2018-08-31T10:44:32.050Z,16.54
2018-08-31T10:45:31.940Z,16.65
2018-08-31T10:46:32.205Z,16.72
2018-08-31T10:47:32.067Z,16.75
2018-08-31T10:48:32.069Z,16.78
2018-08-31T10:49:32.054Z,16.89
2018-08-31T10:50:32.091Z,16.83
2018-08-31T10:51:32.042Z,16.87
2018-08-31T10:52:32.315Z,16.83
2018-08-31T10:53:32.297Z,16.89
2018-08-31T10:54:32.294Z,16.97
2018-08-31T10:55:32.357Z,16.99
2018-08-31T10:56:32.314Z,16.96
2018-08-31T10:57:32.322Z,17.02
2018-08-31T10:58:31.789Z,16.99
2018-08-31T10:59:31.808Z,17.05
2018-08-31T11:00:32.152Z,16.96
2018-08-31T11:01:32.303Z,16.94
2018-08-31T11:02:32.322Z,16.91
2018-08-31T11:03:32.111Z,16.76
2018-08-31T11:04:32.305Z,16.74
2018-08-31T11:05:32.053Z,16.89
2018-08-31T11:06:32.052Z,16.84
2018-08-31T11:07:32.054Z,16.83
2018-08-31T11:08:31.799Z,16.84
2018-08-31T11:09:32.325Z,16.76
2018-08-31T11:10:32.095Z,16.89
2018-08-31T11:11:32.055Z,16.9
2018-08-31T11:12:32.470Z,16.78
2018-08-31T11:13:32.305Z,16.84
2018-08-31T11:14:32.310Z,16.83
2018-08-31T11:15:32.099Z,16.86
2018-08-31T11:16:32.303Z,16.96
2018-08-31T11:17:31.793Z,16.99
2018-08-31T11:18:32.310Z,17.02
2018-08-31T11:19:31.789Z,17.06
2018-08-31T11:20:32.080Z,17.01
2018-08-31T11:21:32.048Z,17.08
2018-08-31T11:22:31.790Z,17.2
2018-08-31T11:23:32.311Z,17.19
2018-08-31T11:24:32.063Z,17.22
2018-08-31T11:25:32.308Z,17.29
2018-08-31T11:26:32.052Z,17.23
2018-08-31T11:27:31.793Z,17.33
2018-08-31T11:28:32.051Z,17.3
2018-08-31T11:29:32.334Z,17.3
2018-08-31T11:30:32.360Z,17.34
2018-08-31T11:31:32.323Z,17.29
2018-08-31T11:32:32.044Z,17.3
2018-08-31T11:33:32.042Z,17.33
2018-08-31T11:34:32.067Z,17.27
2018-08-31T11:35:32.395Z,17.14
2018-08-31T11:36:32.319Z,17.22
2018-08-31T11:37:32.333Z,17.15
2018-08-31T11:38:31.796Z,17.11
2018-08-31T11:39:32.468Z,17.19
2018-08-31T11:40:32.410Z,17.16
2018-08-31T11:41:32.302Z,17.22
2018-08-31T11:42:32.067Z,17.22
2018-08-31T11:43:32.643Z,17.16
2018-08-31T11:44:32.065Z,17.24
2018-08-31T11:45:32.415Z,17.33
2018-08-31T11:46:32.059Z,17.36
2018-08-31T11:47:32.308Z,17.36
2018-08-31T11:48:32.308Z,17.36
2018-08-31T11:49:32.067Z,17.31
2018-08-31T11:50:32.343Z,17.42
2018-08-31T11:51:32.061Z,17.39
2018-08-31T11:52:32.318Z,17.42
2018-08-31T11:53:32.354Z,17.36
2018-08-31T11:54:32.364Z,17.38
2018-08-31T11:55:32.365Z,17.51
2018-08-31T11:56:32.061Z,17.45
2018-08-31T11:57:31.860Z,17.49
2018-08-31T11:58:32.074Z,17.38
2018-08-31T11:59:32.056Z,17.44
2018-08-31T12:00:32.175Z,17.36
2018-08-31T12:01:32.385Z,17.36
2018-08-31T12:02:32.065Z,17.46
2018-08-31T12:03:32.072Z,17.36
2018-08-31T12:04:32.320Z,17.42
2018-08-31T12:05:32.337Z,17.54
2018-08-31T12:06:32.062Z,17.64
2018-08-31T12:07:32.365Z,17.63
2018-08-31T12:08:32.094Z,17.71
2018-08-31T12:09:32.341Z,17.76
2018-08-31T12:10:32.192Z,17.8
2018-08-31T12:11:32.327Z,17.82
2018-08-31T12:12:32.332Z,17.9
2018-08-31T12:13:32.324Z,17.94
2018-08-31T12:14:31.829Z,17.94
2018-08-31T12:15:32.329Z,18.04
2018-08-31T12:16:32.069Z,18.07
2018-08-31T12:17:32.327Z,18
2018-08-31T12:18:32.318Z,18.07
2018-08-31T12:19:32.334Z,18.05
2018-08-31T12:20:32.064Z,17.95
2018-08-31T12:21:31.827Z,17.87
2018-08-31T12:22:32.341Z,17.92
2018-08-31T12:23:32.357Z,17.89
2018-08-31T12:24:31.818Z,17.76
2018-08-31T12:25:32.421Z,17.85
2018-08-31T12:26:32.073Z,17.79
2018-08-31T12:27:32.331Z,17.78
2018-08-31T12:28:32.093Z,17.72
2018-08-31T12:29:32.347Z,17.72
2018-08-31T12:30:32.196Z,17.67
2018-08-31T12:31:32.081Z,17.71
2018-08-31T12:32:31.826Z,17.65
2018-08-31T12:33:32.082Z,17.57
2018-08-31T12:34:32.085Z,17.54
2018-08-31T12:35:32.407Z,17.42
2018-08-31T12:36:32.336Z,17.31
2018-08-31T12:37:31.834Z,17.33
2018-08-31T12:38:32.081Z,17.3
2018-08-31T12:39:32.342Z,17.3
2018-08-31T12:40:32.362Z,17.14
2018-08-31T12:41:32.336Z,17.15
2018-08-31T12:42:31.829Z,17.2
2018-08-31T12:43:32.341Z,17.16
2018-08-31T12:44:32.343Z,17.05
2018-08-31T12:45:32.178Z,17.05
2018-08-31T12:46:32.088Z,17.04
2018-08-31T12:47:32.347Z,17.09
2018-08-31T12:48:32.352Z,17.09
2018-08-31T12:49:32.106Z,16.99
2018-08-31T12:50:32.097Z,16.96
2018-08-31T12:51:32.098Z,16.96
2018-08-31T12:52:32.093Z,16.93
2018-08-31T12:53:32.347Z,16.99
2018-08-31T12:54:32.370Z,17.06
2018-08-31T12:55:32.395Z,17.08